sensor_id;sensor_type;location;lat;lon;timestamp;noise_LAeq;noise_LA_min;noise_LA_max;noise_LA01;noise_LA95
74531;Laerm;63010;55.668;37.878;2022-10-04T00:03:06;58.93;53.49;70.06;;
74531;Laerm;63010;55.668;37.878;2022-10-04T00:05:33;59.65;53.73;70.09;;
74531;Laerm;63010;55.668;37.878;2022-10-04T00:08:05;58.59;52.10;71.62;;
74531;Laerm;63010;55.668;37.878;2022-10-04T00:10:32;58.33;53.51;71.57;;
74531;Laerm;63010;55.668;37.878;2022-10-04T00:13:03;60.55;53.21;71.72;;
74531;Laerm;63010;55.668;37.878;2022-10-04T00:15:32;58.14;51.21;66.51;;
74531;Laerm;63010;55.668;37.878;2022-10-04T00:23:27;57.53;51.61;66.67;;
74531;Laerm;63010;55.668;37.878;2022-10-04T00:25:58;60.59;55.01;70.84;;
74531;Laerm;63010;55.668;37.878;2022-10-04T00:33:51;59.02;51.88;69.08;;
74531;Laerm;63010;55.668;37.878;2022-10-04T00:44:21;59.71;54.67;66.02;;
74531;Laerm;63010;55.668;37.878;2022-10-04T00:46:49;58.45;51.01;65.39;;
74531;Laerm;63010;55.668;37.878;2022-10-04T00:49:19;60.17;54.09;74.80;;
74531;Laerm;63010;55.668;37.878;2022-10-04T00:51:54;59.45;52.36;69.55;;
74531;Laerm;63010;55.668;37.878;2022-10-04T00:54:31;62.00;52.20;78.88;;
74531;Laerm;63010;55.668;37.878;2022-10-04T00:57:06;57.49;52.24;66.09;;
74531;Laerm;63010;55.668;37.878;2022-10-04T01:02:16;57.78;53.26;67.68;;
74531;Laerm;63010;55.668;37.878;2022-10-04T01:04:53;58.95;52.41;65.97;;
74531;Laerm;63010;55.668;37.878;2022-10-04T01:07:38;58.94;53.37;67.77;;
74531;Laerm;63010;55.668;37.878;2022-10-04T01:10:13;58.09;51.37;67.32;;
74531;Laerm;63010;55.668;37.878;2022-10-04T01:12:48;57.32;52.88;63.99;;
74531;Laerm;63010;55.668;37.878;2022-10-04T01:18:11;57.97;52.99;64.33;;
74531;Laerm;63010;55.668;37.878;2022-10-04T01:21:02;57.92;53.19;64.58;;
74531;Laerm;63010;55.668;37.878;2022-10-04T01:28:52;59.35;52.13;66.27;;
74531;Laerm;63010;55.668;37.878;2022-10-04T01:31:17;57.90;52.38;65.54;;
74531;Laerm;63010;55.668;37.878;2022-10-04T01:33:43;58.97;53.72;68.82;;
74531;Laerm;63010;55.668;37.878;2022-10-04T01:36:09;59.17;54.42;70.16;;
74531;Laerm;63010;55.668;37.878;2022-10-04T01:38:35;58.08;51.85;65.55;;
74531;Laerm;63010;55.668;37.878;2022-10-04T01:41:01;59.54;53.95;71.35;;
74531;Laerm;63010;55.668;37.878;2022-10-04T01:43:36;60.66;53.06;81.34;;
74531;Laerm;63010;55.668;37.878;2022-10-04T01:46:18;58.11;51.04;65.31;;
74531;Laerm;63010;55.668;37.878;2022-10-04T01:48:45;58.97;52.38;67.73;;
74531;Laerm;63010;55.668;37.878;2022-10-04T01:51:27;59.29;53.64;72.53;;
74531;Laerm;63010;55.668;37.878;2022-10-04T01:54:03;59.49;52.78;66.54;;
74531;Laerm;63010;55.668;37.878;2022-10-04T01:56:43;59.02;53.91;63.56;;
74531;Laerm;63010;55.668;37.878;2022-10-04T01:59:37;59.18;54.53;66.97;;
74531;Laerm;63010;55.668;37.878;2022-10-04T02:02:09;59.95;53.79;70.23;;
74531;Laerm;63010;55.668;37.878;2022-10-04T02:04:41;58.85;52.97;65.72;;
74531;Laerm;63010;55.668;37.878;2022-10-04T02:07:12;59.42;55.30;64.32;;
74531;Laerm;63010;55.668;37.878;2022-10-04T02:09:43;59.60;55.51;66.47;;
74531;Laerm;63010;55.668;37.878;2022-10-04T02:12:14;59.52;55.01;66.27;;
74531;Laerm;63010;55.668;37.878;2022-10-04T02:14:46;59.32;54.55;68.38;;
74531;Laerm;63010;55.668;37.878;2022-10-04T02:17:20;58.94;54.71;64.32;;
74531;Laerm;63010;55.668;37.878;2022-10-04T02:19:48;60.91;56.31;70.53;;
74531;Laerm;63010;55.668;37.878;2022-10-04T02:22:14;60.65;54.65;67.36;;
74531;Laerm;63010;55.668;37.878;2022-10-04T02:24:43;59.31;54.56;65.17;;
74531;Laerm;63010;55.668;37.878;2022-10-04T02:27:10;60.98;56.41;78.82;;
74531;Laerm;63010;55.668;37.878;2022-10-04T02:29:36;59.84;53.64;64.35;;
74531;Laerm;63010;55.668;37.878;2022-10-04T02:32:06;61.28;56.09;68.93;;
74531;Laerm;63010;55.668;37.878;2022-10-04T02:34:51;61.27;55.38;67.82;;
74531;Laerm;63010;55.668;37.878;2022-10-04T02:37:21;60.44;55.80;64.07;;
74531;Laerm;63010;55.668;37.878;2022-10-04T02:39:53;60.90;56.70;66.66;;
74531;Laerm;63010;55.668;37.878;2022-10-04T02:42:21;61.40;56.80;67.21;;
74531;Laerm;63010;55.668;37.878;2022-10-04T02:45:00;60.41;54.60;66.96;;
74531;Laerm;63010;55.668;37.878;2022-10-04T02:47:52;60.45;56.22;65.49;;
74531;Laerm;63010;55.668;37.878;2022-10-04T02:50:23;60.70;56.74;68.30;;
74531;Laerm;63010;55.668;37.878;2022-10-04T02:52:56;60.31;56.10;64.59;;
74531;Laerm;63010;55.668;37.878;2022-10-04T02:55:28;61.50;56.44;71.15;;
74531;Laerm;63010;55.668;37.878;2022-10-04T02:57:55;61.04;57.33;69.98;;
74531;Laerm;63010;55.668;37.878;2022-10-04T03:00:30;61.45;56.50;70.32;;
74531;Laerm;63010;55.668;37.878;2022-10-04T03:05:37;60.72;57.28;65.15;;
74531;Laerm;63010;55.668;37.878;2022-10-04T03:08:04;61.24;57.74;69.57;;
74531;Laerm;63010;55.668;37.878;2022-10-04T03:10:30;61.28;57.36;66.34;;
74531;Laerm;63010;55.668;37.878;2022-10-04T03:12:56;60.97;57.55;66.74;;
74531;Laerm;63010;55.668;37.878;2022-10-04T03:15:22;61.72;56.87;67.12;;
74531;Laerm;63010;55.668;37.878;2022-10-04T03:17:49;61.46;57.72;67.24;;
74531;Laerm;63010;55.668;37.878;2022-10-04T03:20:15;62.30;58.31;68.93;;
74531;Laerm;63010;55.668;37.878;2022-10-04T03:22:48;61.86;57.66;66.56;;
74531;Laerm;63010;55.668;37.878;2022-10-04T03:25:25;62.07;57.81;69.81;;
74531;Laerm;63010;55.668;37.878;2022-10-04T03:27:54;61.39;57.92;64.97;;
74531;Laerm;63010;55.668;37.878;2022-10-04T03:30:23;62.00;58.32;66.92;;
74531;Laerm;63010;55.668;37.878;2022-10-04T03:32:49;62.98;59.96;67.26;;
74531;Laerm;63010;55.668;37.878;2022-10-04T03:35:29;62.69;58.80;68.53;;
74531;Laerm;63010;55.668;37.878;2022-10-04T03:37:57;62.74;58.32;68.88;;
74531;Laerm;63010;55.668;37.878;2022-10-04T03:40:27;62.09;58.26;65.71;;
74531;Laerm;63010;55.668;37.878;2022-10-04T03:42:55;62.14;57.02;68.30;;
74531;Laerm;63010;55.668;37.878;2022-10-04T03:45:22;62.25;58.01;67.78;;
74531;Laerm;63010;55.668;37.878;2022-10-04T03:47:50;61.92;57.70;67.68;;
74531;Laerm;63010;55.668;37.878;2022-10-04T03:50:30;62.17;58.44;67.10;;
74531;Laerm;63010;55.668;37.878;2022-10-04T03:53:08;62.57;58.72;71.37;;
74531;Laerm;63010;55.668;37.878;2022-10-04T03:55:39;62.63;58.49;69.75;;
74531;Laerm;63010;55.668;37.878;2022-10-04T03:58:13;62.49;57.50;70.56;;
74531;Laerm;63010;55.668;37.878;2022-10-04T04:00:54;62.15;57.43;66.89;;
74531;Laerm;63010;55.668;37.878;2022-10-04T04:03:24;62.73;58.82;69.80;;
74531;Laerm;63010;55.668;37.878;2022-10-04T04:05:53;61.76;57.72;65.85;;
74531;Laerm;63010;55.668;37.878;2022-10-04T04:08:39;62.16;59.04;66.63;;
74531;Laerm;63010;55.668;37.878;2022-10-04T04:11:09;62.41;58.55;74.50;;
74531;Laerm;63010;55.668;37.878;2022-10-04T04:16:14;63.11;58.03;74.79;;
74531;Laerm;63010;55.668;37.878;2022-10-04T04:18:42;59.99;56.10;64.24;;
74531;Laerm;63010;55.668;37.878;2022-10-04T04:21:12;61.32;57.59;67.60;;
74531;Laerm;63010;55.668;37.878;2022-10-04T04:23:43;61.21;56.41;67.53;;
74531;Laerm;63010;55.668;37.878;2022-10-04T04:28:50;59.69;55.32;67.10;;
74531;Laerm;63010;55.668;37.878;2022-10-04T04:31:21;61.20;56.40;75.71;;
74531;Laerm;63010;55.668;37.878;2022-10-04T04:33:54;60.86;56.84;66.96;;
74531;Laerm;63010;55.668;37.878;2022-10-04T04:36:23;61.29;55.58;71.33;;
74531;Laerm;63010;55.668;37.878;2022-10-04T04:38:49;60.71;55.67;66.92;;
74531;Laerm;63010;55.668;37.878;2022-10-04T04:41:34;60.30;54.95;67.42;;
74531;Laerm;63010;55.668;37.878;2022-10-04T04:44:01;60.39;56.10;66.19;;
74531;Laerm;63010;55.668;37.878;2022-10-04T04:46:27;61.32;55.85;67.79;;
74531;Laerm;63010;55.668;37.878;2022-10-04T04:48:59;62.41;57.29;71.84;;
74531;Laerm;63010;55.668;37.878;2022-10-04T04:51:27;60.54;56.60;75.05;;
74531;Laerm;63010;55.668;37.878;2022-10-04T04:53:54;60.75;55.54;69.84;;
74531;Laerm;63010;55.668;37.878;2022-10-04T04:56:24;60.88;56.90;67.32;;
74531;Laerm;63010;55.668;37.878;2022-10-04T04:58:52;60.57;56.53;72.43;;
74531;Laerm;63010;55.668;37.878;2022-10-04T05:06:39;61.62;56.71;67.24;;
74531;Laerm;63010;55.668;37.878;2022-10-04T05:09:21;60.79;56.44;66.96;;
74531;Laerm;63010;55.668;37.878;2022-10-04T05:11:46;60.98;56.56;67.16;;
74531;Laerm;63010;55.668;37.878;2022-10-04T05:14:14;61.49;56.59;69.30;;
74531;Laerm;63010;55.668;37.878;2022-10-04T05:16:52;60.43;55.80;68.88;;
74531;Laerm;63010;55.668;37.878;2022-10-04T05:21:51;60.82;56.03;66.96;;
74531;Laerm;63010;55.668;37.878;2022-10-04T05:24:27;59.98;55.76;64.50;;
74531;Laerm;63010;55.668;37.878;2022-10-04T05:27:23;61.43;57.29;67.77;;
74531;Laerm;63010;55.668;37.878;2022-10-04T05:33:07;61.52;57.80;68.02;;
74531;Laerm;63010;55.668;37.878;2022-10-04T05:36:01;61.33;56.98;68.91;;
74531;Laerm;63010;55.668;37.878;2022-10-04T05:38:52;61.72;56.64;66.45;;
74531;Laerm;63010;55.668;37.878;2022-10-04T05:41:30;62.14;58.26;69.46;;
74531;Laerm;63010;55.668;37.878;2022-10-04T05:43:59;62.19;58.45;68.26;;
74531;Laerm;63010;55.668;37.878;2022-10-04T05:46:29;63.89;60.03;70.10;;
74531;Laerm;63010;55.668;37.878;2022-10-04T05:49:05;63.00;58.32;68.97;;
74531;Laerm;63010;55.668;37.878;2022-10-04T05:51:34;63.56;58.84;71.85;;
74531;Laerm;63010;55.668;37.878;2022-10-04T05:54:12;63.05;58.73;69.18;;
74531;Laerm;63010;55.668;37.878;2022-10-04T05:57:01;62.67;57.94;68.90;;
74531;Laerm;63010;55.668;37.878;2022-10-04T06:02:11;62.83;59.40;69.98;;
74531;Laerm;63010;55.668;37.878;2022-10-04T06:05:09;62.79;58.79;70.41;;
74531;Laerm;63010;55.668;37.878;2022-10-04T06:10:56;63.17;59.24;71.38;;
74531;Laerm;63010;55.668;37.878;2022-10-04T06:21:27;65.13;59.80;76.73;;
74531;Laerm;63010;55.668;37.878;2022-10-04T06:24:13;64.12;60.23;73.21;;
74531;Laerm;63010;55.668;37.878;2022-10-04T06:26:48;64.53;60.18;73.55;;
74531;Laerm;63010;55.668;37.878;2022-10-04T06:29:20;65.07;59.98;74.80;;
74531;Laerm;63010;55.668;37.878;2022-10-04T06:48:59;65.07;60.85;75.52;;
74531;Laerm;63010;55.668;37.878;2022-10-04T06:51:44;66.50;60.94;92.43;;
74531;Laerm;63010;55.668;37.878;2022-10-04T07:00:03;65.14;60.26;75.59;;
74531;Laerm;63010;55.668;37.878;2022-10-04T07:02:58;64.22;60.06;73.25;;
74531;Laerm;63010;55.668;37.878;2022-10-04T07:08:10;67.66;60.37;78.88;;
74531;Laerm;63010;55.668;37.878;2022-10-04T07:10:52;66.27;60.75;71.51;;
74531;Laerm;63010;55.668;37.878;2022-10-04T07:19:47;64.98;58.69;79.14;;
74531;Laerm;63010;55.668;37.878;2022-10-04T07:24:46;64.15;59.71;69.19;;
74531;Laerm;63010;55.668;37.878;2022-10-04T07:27:19;64.45;60.16;71.95;;
74531;Laerm;63010;55.668;37.878;2022-10-04T07:29:53;66.39;60.53;79.08;;
74531;Laerm;63010;55.668;37.878;2022-10-04T07:32:27;66.04;61.94;77.45;;
74531;Laerm;63010;55.668;37.878;2022-10-04T07:40:29;64.18;60.50;69.03;;
74531;Laerm;63010;55.668;37.878;2022-10-04T07:43:07;64.34;60.29;72.00;;
74531;Laerm;63010;55.668;37.878;2022-10-04T07:45:41;65.20;60.82;79.26;;
74531;Laerm;63010;55.668;37.878;2022-10-04T07:48:15;63.56;58.71;80.34;;
74531;Laerm;63010;55.668;37.878;2022-10-04T07:51:06;65.68;59.15;85.96;;
74531;Laerm;63010;55.668;37.878;2022-10-04T07:53:41;65.03;60.52;80.81;;
74531;Laerm;63010;55.668;37.878;2022-10-04T07:56:17;63.57;59.29;72.83;;
74531;Laerm;63010;55.668;37.878;2022-10-04T07:58:59;64.64;60.80;77.37;;
74531;Laerm;63010;55.668;37.878;2022-10-04T08:04:38;64.51;58.72;78.44;;
74531;Laerm;63010;55.668;37.878;2022-10-04T08:07:19;63.15;57.40;79.09;;
74531;Laerm;63010;55.668;37.878;2022-10-04T08:15:39;63.34;58.96;77.81;;
74531;Laerm;63010;55.668;37.878;2022-10-04T08:20:40;64.44;59.31;77.25;;
74531;Laerm;63010;55.668;37.878;2022-10-04T08:26:16;64.51;60.06;76.14;;
74531;Laerm;63010;55.668;37.878;2022-10-04T08:51:53;66.95;60.77;83.96;;
74531;Laerm;63010;55.668;37.878;2022-10-04T09:11:58;66.14;60.83;83.87;;
74531;Laerm;63010;55.668;37.878;2022-10-04T09:18:02;65.82;60.88;81.57;;
74531;Laerm;63010;55.668;37.878;2022-10-04T09:28:58;64.03;58.60;79.46;;
74531;Laerm;63010;55.668;37.878;2022-10-04T09:37:16;64.05;59.70;77.63;;
74531;Laerm;63010;55.668;37.878;2022-10-04T09:45:57;64.45;60.29;73.86;;
74531;Laerm;63010;55.668;37.878;2022-10-04T09:48:40;63.74;59.65;70.21;;
74531;Laerm;63010;55.668;37.878;2022-10-04T10:19:48;65.27;60.64;76.69;;
74531;Laerm;63010;55.668;37.878;2022-10-04T10:25:25;64.48;59.72;77.00;;
74531;Laerm;63010;55.668;37.878;2022-10-04T10:33:51;65.19;61.33;81.12;;
74531;Laerm;63010;55.668;37.878;2022-10-04T10:45:00;63.65;59.62;69.53;;
74531;Laerm;63010;55.668;37.878;2022-10-04T10:48:07;64.85;60.56;82.48;;
74531;Laerm;63010;55.668;37.878;2022-10-04T11:02:25;72.78;67.30;91.82;;
74531;Laerm;63010;55.668;37.878;2022-10-04T11:05:26;69.59;65.71;79.35;;
74531;Laerm;63010;55.668;37.878;2022-10-04T11:21:45;66.96;62.86;74.56;;
74531;Laerm;63010;55.668;37.878;2022-10-04T11:30:03;68.09;63.68;84.30;;
74531;Laerm;63010;55.668;37.878;2022-10-04T11:35:47;67.28;63.75;73.11;;
74531;Laerm;63010;55.668;37.878;2022-10-04T11:57:43;65.78;62.02;69.92;;
74531;Laerm;63010;55.668;37.878;2022-10-04T12:00:14;66.72;62.01;72.45;;
74531;Laerm;63010;55.668;37.878;2022-10-04T12:14:48;65.66;61.72;69.87;;
74531;Laerm;63010;55.668;37.878;2022-10-04T12:19:50;65.64;59.88;73.82;;
74531;Laerm;63010;55.668;37.878;2022-10-04T12:31:48;64.91;60.63;70.37;;
74531;Laerm;63010;55.668;37.878;2022-10-04T12:39:30;65.45;61.59;75.94;;
74531;Laerm;63010;55.668;37.878;2022-10-04T12:42:10;66.42;61.39;78.16;;
74531;Laerm;63010;55.668;37.878;2022-10-04T12:47:44;65.31;61.65;71.03;;
74531;Laerm;63010;55.668;37.878;2022-10-04T12:50:34;65.09;61.47;69.87;;
74531;Laerm;63010;55.668;37.878;2022-10-04T12:56:34;64.69;59.89;70.74;;
74531;Laerm;63010;55.668;37.878;2022-10-04T13:22:04;67.71;63.07;78.82;;
74531;Laerm;63010;55.668;37.878;2022-10-04T13:27:52;66.56;63.37;74.91;;
74531;Laerm;63010;55.668;37.878;2022-10-04T13:30:45;66.03;62.18;71.78;;
74531;Laerm;63010;55.668;37.878;2022-10-04T13:33:19;65.77;61.94;70.83;;
74531;Laerm;63010;55.668;37.878;2022-10-04T13:36:10;65.53;61.51;72.49;;
74531;Laerm;63010;55.668;37.878;2022-10-04T13:38:53;64.91;60.56;75.06;;
74531;Laerm;63010;55.668;37.878;2022-10-04T13:41:42;65.82;60.66;72.25;;
74531;Laerm;63010;55.668;37.878;2022-10-04T13:55:53;64.58;60.83;69.45;;
74531;Laerm;63010;55.668;37.878;2022-10-04T14:13:36;66.13;61.08;84.38;;
74531;Laerm;63010;55.668;37.878;2022-10-04T14:35:40;63.92;59.60;73.88;;
74531;Laerm;63010;55.668;37.878;2022-10-04T15:11:07;61.95;58.16;68.32;;
74531;Laerm;63010;55.668;37.878;2022-10-04T15:13:53;61.96;57.79;70.33;;
74531;Laerm;63010;55.668;37.878;2022-10-04T15:16:35;62.06;57.99;68.67;;
74531;Laerm;63010;55.668;37.878;2022-10-04T15:19:26;61.40;57.44;71.08;;
74531;Laerm;63010;55.668;37.878;2022-10-04T15:25:36;62.26;57.80;75.21;;
74531;Laerm;63010;55.668;37.878;2022-10-04T15:28:10;60.49;56.56;66.96;;
74531;Laerm;63010;55.668;37.878;2022-10-04T15:33:54;60.17;55.60;69.67;;
74531;Laerm;63010;55.668;37.878;2022-10-04T15:41:59;61.18;57.13;66.65;;
74531;Laerm;63010;55.668;37.878;2022-10-04T15:47:31;61.53;57.63;72.50;;
74531;Laerm;63010;55.668;37.878;2022-10-04T15:53:03;60.51;56.52;66.55;;
74531;Laerm;63010;55.668;37.878;2022-10-04T16:03:38;66.37;57.93;86.47;;
74531;Laerm;63010;55.668;37.878;2022-10-04T16:06:38;63.53;56.84;78.73;;
74531;Laerm;63010;55.668;37.878;2022-10-04T16:15:17;61.28;58.01;70.73;;
74531;Laerm;63010;55.668;37.878;2022-10-04T16:23:37;61.16;57.53;67.32;;
74531;Laerm;63010;55.668;37.878;2022-10-04T16:29:10;62.11;57.74;71.64;;
74531;Laerm;63010;55.668;37.878;2022-10-04T16:37:02;61.14;57.37;67.83;;
74531;Laerm;63010;55.668;37.878;2022-10-04T16:39:48;61.29;57.51;69.53;;
74531;Laerm;63010;55.668;37.878;2022-10-04T16:45:25;61.42;58.23;70.95;;
74531;Laerm;63010;55.668;37.878;2022-10-04T16:50:12;62.62;58.30;74.02;;
74531;Laerm;63010;55.668;37.878;2022-10-04T16:56:09;62.03;58.04;67.58;;
74531;Laerm;63010;55.668;37.878;2022-10-04T17:09:32;61.81;58.05;69.37;;
74531;Laerm;63010;55.668;37.878;2022-10-04T17:20:25;61.70;58.14;67.14;;
74531;Laerm;63010;55.668;37.878;2022-10-04T17:28:17;61.84;57.35;69.21;;
74531;Laerm;63010;55.668;37.878;2022-10-04T17:31:00;61.55;56.98;66.64;;
74531;Laerm;63010;55.668;37.878;2022-10-04T17:44:53;62.54;58.74;72.98;;
74531;Laerm;63010;55.668;37.878;2022-10-04T17:47:37;61.48;57.90;69.37;;
74531;Laerm;63010;55.668;37.878;2022-10-04T17:50:28;62.73;57.65;75.35;;
74531;Laerm;63010;55.668;37.878;2022-10-04T17:53:22;62.03;57.17;68.43;;
74531;Laerm;63010;55.668;37.878;2022-10-04T17:56:09;62.34;57.15;72.66;;
74531;Laerm;63010;55.668;37.878;2022-10-04T17:58:39;62.97;59.18;69.18;;
74531;Laerm;63010;55.668;37.878;2022-10-04T18:01:36;63.53;60.29;70.75;;
74531;Laerm;63010;55.668;37.878;2022-10-04T18:04:15;64.05;59.59;71.64;;
74531;Laerm;63010;55.668;37.878;2022-10-04T18:12:30;64.83;61.19;70.26;;
74531;Laerm;63010;55.668;37.878;2022-10-04T18:17:43;63.55;58.85;69.06;;
74531;Laerm;63010;55.668;37.878;2022-10-04T18:22:49;63.42;59.10;73.07;;
74531;Laerm;63010;55.668;37.878;2022-10-04T18:25:18;63.00;58.65;68.80;;
74531;Laerm;63010;55.668;37.878;2022-10-04T18:30:28;63.14;58.84;70.55;;
74531;Laerm;63010;55.668;37.878;2022-10-04T18:32:54;62.58;59.14;67.87;;
74531;Laerm;63010;55.668;37.878;2022-10-04T18:37:54;63.04;59.93;69.03;;
74531;Laerm;63010;55.668;37.878;2022-10-04T18:40:24;64.83;59.34;77.96;;
74531;Laerm;63010;55.668;37.878;2022-10-04T18:42:57;63.99;59.29;74.00;;
74531;Laerm;63010;55.668;37.878;2022-10-04T18:47:53;62.38;57.98;72.58;;
74531;Laerm;63010;55.668;37.878;2022-10-04T19:04:25;62.18;57.72;74.68;;
74531;Laerm;63010;55.668;37.878;2022-10-04T19:07:07;61.70;56.95;66.93;;
74531;Laerm;63010;55.668;37.878;2022-10-04T19:12:04;62.02;57.35;69.23;;
74531;Laerm;63010;55.668;37.878;2022-10-04T19:17:24;62.83;58.76;72.21;;
74531;Laerm;63010;55.668;37.878;2022-10-04T19:28:01;62.88;57.76;71.71;;
74531;Laerm;63010;55.668;37.878;2022-10-04T19:36:00;64.31;57.77;73.00;;
74531;Laerm;63010;55.668;37.878;2022-10-04T19:52:53;62.34;57.27;74.08;;
74531;Laerm;63010;55.668;37.878;2022-10-04T20:00:40;63.46;57.39;73.32;;
74531;Laerm;63010;55.668;37.878;2022-10-04T20:03:10;63.15;57.17;70.54;;
74531;Laerm;63010;55.668;37.878;2022-10-04T20:05:49;62.78;57.97;68.65;;
74531;Laerm;63010;55.668;37.878;2022-10-04T20:08:54;62.18;57.22;72.21;;
74531;Laerm;63010;55.668;37.878;2022-10-04T20:11:44;62.84;57.88;69.63;;
74531;Laerm;63010;55.668;37.878;2022-10-04T20:19:37;61.67;55.79;70.13;;
74531;Laerm;63010;55.668;37.878;2022-10-04T20:34:56;61.88;54.05;69.54;;
74531;Laerm;63010;55.668;37.878;2022-10-04T20:48:27;59.93;55.65;64.93;;
74531;Laerm;63010;55.668;37.878;2022-10-04T20:50:55;63.35;56.21;76.33;;
74531;Laerm;63010;55.668;37.878;2022-10-04T20:53:31;60.78;55.52;71.93;;
74531;Laerm;63010;55.668;37.878;2022-10-04T20:56:21;61.67;55.94;71.38;;
74531;Laerm;63010;55.668;37.878;2022-10-04T20:58:58;61.61;55.12;72.28;;
74531;Laerm;63010;55.668;37.878;2022-10-04T21:01:29;60.42;54.56;68.24;;
74531;Laerm;63010;55.668;37.878;2022-10-04T21:04:26;61.36;55.54;73.02;;
74531;Laerm;63010;55.668;37.878;2022-10-04T21:07:08;60.70;53.67;71.97;;
74531;Laerm;63010;55.668;37.878;2022-10-04T21:09:39;60.54;55.61;67.53;;
74531;Laerm;63010;55.668;37.878;2022-10-04T21:12:25;58.94;53.39;65.43;;
74531;Laerm;63010;55.668;37.878;2022-10-04T21:15:21;60.78;54.47;73.25;;
74531;Laerm;63010;55.668;37.878;2022-10-04T21:18:02;60.17;54.51;71.62;;
74531;Laerm;63010;55.668;37.878;2022-10-04T21:20:48;59.65;54.65;65.41;;
74531;Laerm;63010;55.668;37.878;2022-10-04T21:23:35;60.32;54.12;67.09;;
74531;Laerm;63010;55.668;37.878;2022-10-04T21:26:23;60.59;53.63;72.99;;
74531;Laerm;63010;55.668;37.878;2022-10-04T21:28:53;60.39;54.70;69.03;;
74531;Laerm;63010;55.668;37.878;2022-10-04T21:31:21;59.26;52.35;69.27;;
74531;Laerm;63010;55.668;37.878;2022-10-04T21:33:47;62.05;55.62;71.76;;
74531;Laerm;63010;55.668;37.878;2022-10-04T21:36:13;62.19;54.92;73.35;;
74531;Laerm;63010;55.668;37.878;2022-10-04T21:38:39;61.03;54.95;68.94;;
74531;Laerm;63010;55.668;37.878;2022-10-04T21:41:04;60.39;53.55;70.73;;
74531;Laerm;63010;55.668;37.878;2022-10-04T21:43:30;58.44;54.05;65.51;;
74531;Laerm;63010;55.668;37.878;2022-10-04T21:45:56;60.14;53.50;67.82;;
74531;Laerm;63010;55.668;37.878;2022-10-04T21:48:22;59.68;54.25;66.50;;
74531;Laerm;63010;55.668;37.878;2022-10-04T21:50:49;61.06;53.84;75.66;;
74531;Laerm;63010;55.668;37.878;2022-10-04T21:53:15;60.37;53.05;68.82;;
74531;Laerm;63010;55.668;37.878;2022-10-04T21:55:41;59.61;53.60;68.14;;
74531;Laerm;63010;55.668;37.878;2022-10-04T21:58:07;60.87;54.37;69.18;;
74531;Laerm;63010;55.668;37.878;2022-10-04T22:00:32;60.86;54.89;69.50;;
74531;Laerm;63010;55.668;37.878;2022-10-04T22:02:58;60.26;54.58;68.44;;
74531;Laerm;63010;55.668;37.878;2022-10-04T22:05:24;59.50;52.56;65.94;;
74531;Laerm;63010;55.668;37.878;2022-10-04T22:07:50;58.39;52.47;66.47;;
74531;Laerm;63010;55.668;37.878;2022-10-04T22:10:16;59.69;52.28;69.18;;
74531;Laerm;63010;55.668;37.878;2022-10-04T22:12:42;59.79;53.96;68.00;;
74531;Laerm;63010;55.668;37.878;2022-10-04T22:15:08;59.44;52.96;67.48;;
74531;Laerm;63010;55.668;37.878;2022-10-04T22:17:34;58.02;52.46;67.10;;
74531;Laerm;63010;55.668;37.878;2022-10-04T22:19:59;58.57;53.10;64.64;;
74531;Laerm;63010;55.668;37.878;2022-10-04T22:22:29;58.97;53.30;66.96;;
74531;Laerm;63010;55.668;37.878;2022-10-04T22:24:56;58.10;52.91;64.17;;
74531;Laerm;63010;55.668;37.878;2022-10-04T22:27:22;59.66;50.97;69.85;;
74531;Laerm;63010;55.668;37.878;2022-10-04T22:29:47;59.36;54.01;69.24;;
74531;Laerm;63010;55.668;37.878;2022-10-04T22:32:25;57.86;52.38;66.43;;
74531;Laerm;63010;55.668;37.878;2022-10-04T22:34:57;57.78;51.65;68.66;;
74531;Laerm;63010;55.668;37.878;2022-10-04T22:37:24;58.54;52.60;69.38;;
74531;Laerm;63010;55.668;37.878;2022-10-04T22:39:51;58.89;50.80;70.03;;
74531;Laerm;63010;55.668;37.878;2022-10-04T22:42:17;58.86;52.25;68.77;;
74531;Laerm;63010;55.668;37.878;2022-10-04T22:44:43;60.14;53.12;71.01;;
74531;Laerm;63010;55.668;37.878;2022-10-04T22:47:12;59.27;52.15;70.36;;
74531;Laerm;63010;55.668;37.878;2022-10-04T22:49:41;58.85;52.66;65.99;;
74531;Laerm;63010;55.668;37.878;2022-10-04T22:52:16;57.04;50.55;63.63;;
74531;Laerm;63010;55.668;37.878;2022-10-04T22:54:47;58.24;53.40;66.33;;
74531;Laerm;63010;55.668;37.878;2022-10-04T22:57:14;59.27;53.27;68.18;;
74531;Laerm;63010;55.668;37.878;2022-10-04T22:59:46;59.19;51.58;71.98;;
74531;Laerm;63010;55.668;37.878;2022-10-04T23:02:15;58.68;52.27;67.50;;
74531;Laerm;63010;55.668;37.878;2022-10-04T23:04:49;56.98;50.39;65.88;;
74531;Laerm;63010;55.668;37.878;2022-10-04T23:07:16;59.06;51.87;68.64;;
74531;Laerm;63010;55.668;37.878;2022-10-04T23:09:41;58.64;51.78;69.52;;
74531;Laerm;63010;55.668;37.878;2022-10-04T23:12:07;58.06;49.88;68.71;;
74531;Laerm;63010;55.668;37.878;2022-10-04T23:14:36;57.28;51.42;64.98;;
74531;Laerm;63010;55.668;37.878;2022-10-04T23:17:23;58.47;50.98;72.39;;
74531;Laerm;63010;55.668;37.878;2022-10-04T23:20:22;57.16;51.72;69.90;;
74531;Laerm;63010;55.668;37.878;2022-10-04T23:22:50;58.65;51.41;66.48;;
74531;Laerm;63010;55.668;37.878;2022-10-04T23:25:26;58.39;50.62;66.89;;
74531;Laerm;63010;55.668;37.878;2022-10-04T23:27:57;57.34;51.61;65.00;;
74531;Laerm;63010;55.668;37.878;2022-10-04T23:30:25;57.01;50.52;68.02;;
74531;Laerm;63010;55.668;37.878;2022-10-04T23:32:52;57.65;50.33;64.97;;
74531;Laerm;63010;55.668;37.878;2022-10-04T23:35:28;58.82;52.45;70.87;;
74531;Laerm;63010;55.668;37.878;2022-10-04T23:37:54;57.77;51.32;69.51;;
74531;Laerm;63010;55.668;37.878;2022-10-04T23:40:21;57.76;51.72;64.36;;
74531;Laerm;63010;55.668;37.878;2022-10-04T23:42:49;56.86;51.29;64.80;;
74531;Laerm;63010;55.668;37.878;2022-10-04T23:45:23;58.54;50.79;69.06;;
74531;Laerm;63010;55.668;37.878;2022-10-04T23:47:57;58.32;49.24;69.01;;
74531;Laerm;63010;55.668;37.878;2022-10-04T23:50:34;57.57;49.90;63.98;;
74531;Laerm;63010;55.668;37.878;2022-10-04T23:53:03;56.83;51.26;66.19;;
74531;Laerm;63010;55.668;37.878;2022-10-04T23:55:43;57.67;51.67;67.25;;
74531;Laerm;63010;55.668;37.878;2022-10-04T23:58:19;58.38;51.92;68.85;;
